^^
Grace C. Lehan Memorial Weather Station Historical Data
Daily Summary for August 05, 2021 Units:  English    Metric   Both
Daily Weekly Monthly Yearly
  High: Low: Average:
Temperature: 75.1 °F 64.8 °F 68.7 °F
Dew Point: 68.1 °F 63.2 °F 65.2 °F
Humidity: 96% 77.1% 89%
Wind Speed: 3.4mph 0mph 0.4mph
Wind Gust: 13mph - -
Wind- - SSE
Pressure: 30.09 in 30.02 in -
Precipitation: 0.06 in    
 
 
Tabular Data for August 05, 2021
Time Temperature Dew Point Pressure Wind Wind Speed Wind Gust Humidity Rainfall Rate (Hourly) solar
00:04 67.7 °F 63.8 °F 30.09 in Calm   4 mph 87.5% 0.00 in 0 W/m2
00:09 67.5 °F 63.8 °F 30.09 in East 0.6 mph 5 mph 88% 0.00 in 0 W/m2
00:14 67.4 °F 63.7 °F 30.09 in East 0.4 mph 5 mph 88% 0.00 in 0 W/m2
00:19 67.3 °F 63.6 °F 30.09 in East 0.6 mph 6 mph 88% 0.00 in 0 W/m2
00:24 67.2 °F 63.5 °F 30.09 in NE 3 mph 7 mph 88% 0.00 in 0 W/m2
00:29 67.1 °F 63.5 °F 30.09 in ENE 2.4 mph 7 mph 88% 0.00 in 0 W/m2
00:34 67 °F 63.3 °F 30.09 in NE 2.2 mph 7 mph 88% 0.00 in 0 W/m2
00:39 66.9 °F 63.2 °F 30.09 in ENE 0.7 mph 5 mph 88% 0.00 in 0 W/m2
00:44 66.8 °F 63.2 °F 30.09 in ENE 1.9 mph 5 mph 88.1% 0.00 in 0 W/m2
00:49 66.8 °F 63.4 °F 30.09 in ENE 0.2 mph 5 mph 89% 0.00 in 0 W/m2
00:54 66.7 °F 63.4 °F 30.09 in ENE 1.2 mph 5 mph 89% 0.00 in 0 W/m2
00:59 66.7 °F 63.4 °F 30.09 in NE 1.4 mph 6 mph 89% 0.00 in 0 W/m2
01:04 66.7 °F 63.4 °F 30.08 in ENE 0.2 mph 6 mph 89% 0.00 in 0 W/m2
01:09 66.6 °F 63.3 °F 30.08 in ENE 0.3 mph 2 mph 89% 0.00 in 0 W/m2
01:14 66.6 °F 63.3 °F 30.08 in Calm   2 mph 89% 0.00 in 0 W/m2
01:19 66.6 °F 63.3 °F 30.08 in ENE 0.4 mph 3 mph 89% 0.00 in 0 W/m2
01:24 66.6 °F 63.2 °F 30.08 in Calm   3 mph 89% 0.00 in 0 W/m2
01:29 66.5 °F 63.3 °F 30.08 in ENE 0.4 mph 3 mph 89.3% 0.00 in 0 W/m2
01:34 66.5 °F 63.2 °F 30.08 in ENE 1 mph 5 mph 89% 0.00 in 0 W/m2
01:39 66.5 °F 63.2 °F 30.08 in ENE 0.5 mph 5 mph 89% 0.00 in 0 W/m2
01:44 66.5 °F 63.2 °F 30.08 in ENE 1 mph 5 mph 89% 0.00 in 0 W/m2
01:49 66.5 °F 63.2 °F 30.08 in Calm   5 mph 89.1% 0.00 in 0 W/m2
01:54 66.5 °F 63.4 °F 30.08 in ENE 0.1 mph 5 mph 89.7% 0.00 in 0 W/m2
01:59 66.5 °F 63.3 °F 30.08 in ENE 1.1 mph 5 mph 89.3% 0.00 in 0 W/m2
02:04 66.5 °F 63.2 °F 30.07 in ENE 0.3 mph 5 mph 89% 0.00 in 0 W/m2
02:09 66.5 °F 63.3 °F 30.07 in Calm   4 mph 89.3% 0.00 in 0 W/m2
02:14 66.5 °F 63.4 °F 30.07 in ENE 0.1 mph 4 mph 89.7% 0.00 in 0 W/m2
02:19 66.5 °F 63.4 °F 30.07 in ENE 0.7 mph 9 mph 90% 0.00 in 0 W/m2
02:24 66.4 °F 63.4 °F 30.07 in ENE 0.9 mph 9 mph 90% 0.00 in 0 W/m2
02:29 66.4 °F 63.4 °F 30.07 in ENE 0.4 mph 9 mph 90% 0.00 in 0 W/m2
02:34 66.4 °F 63.4 °F 30.07 in ENE 0.2 mph 9 mph 90% 0.00 in 0 W/m2
02:39 66.4 °F 63.4 °F 30.07 in NE 0.7 mph 6 mph 90% 0.00 in 0 W/m2
02:44 66.3 °F 63.5 °F 30.07 in NE 0.1 mph 6 mph 90.5% 0.00 in 0 W/m2
02:49 66.3 °F 63.6 °F 30.07 in NE 0.5 mph 6 mph 91% 0.00 in 0 W/m2
02:54 66.3 °F 63.6 °F 30.07 in Calm   6 mph 91% 0.00 in 0 W/m2
02:59 66.2 °F 63.5 °F 30.06 in NE 0.1 mph 6 mph 91% 0.00 in 0 W/m2
03:04 66.2 °F 63.5 °F 30.06 in North 0.9 mph 7 mph 91% 0.00 in 0 W/m2
03:09 66.1 °F 63.7 °F 30.06 in NW 1 mph 7 mph 92% 0.00 in 0 W/m2
03:14 66 °F 63.6 °F 30.06 in NW 0.1 mph 7 mph 92% 0.00 in 0 W/m2
03:19 66 °F 63.6 °F 30.06 in NW 0.4 mph 7 mph 92% 0.00 in 0 W/m2
03:24 65.9 °F 63.5 °F 30.06 in NW 0.8 mph 7 mph 92.1% 0.00 in 0 W/m2
03:29 65.8 °F 63.7 °F 30.06 in Calm   7 mph 93% 0.00 in 0 W/m2
03:34 65.7 °F 63.7 °F 30.06 in Calm   7 mph 93% 0.00 in 0 W/m2
03:39 65.7 °F 63.6 °F 30.06 in NW 0.4 mph 5 mph 93% 0.00 in 0 W/m2
03:44 65.6 °F 63.5 °F 30.05 in NNW 0.5 mph 5 mph 93% 0.00 in 0 W/m2
03:49 65.6 °F 63.5 °F 30.05 in NNW 0.1 mph 5 mph 93% 0.00 in 0 W/m2
03:54 65.6 °F 63.5 °F 30.05 in NNW 0.2 mph 5 mph 93% 0.00 in 0 W/m2
03:59 65.6 °F 63.5 °F 30.05 in NNW 0.2 mph 5 mph 93% 0.00 in 0 W/m2
04:09 65.4 °F 63.6 °F 30.05 in Calm     94% 0.01 in 0 W/m2
04:14 65.4 °F 63.6 °F 30.05 in Calm   2 mph 94% 0.01 in 0 W/m2
04:19 65.4 °F 63.6 °F 30.05 in NNW 0.3 mph 4 mph 94% 0.01 in 0 W/m2
04:24 65.4 °F 63.6 °F 30.05 in NNW 0.5 mph 4 mph 94% 0.01 in 0 W/m2
04:29 65.3 °F 63.5 °F 30.05 in North 0.2 mph 4 mph 94% 0.01 in 0 W/m2
04:34 65.3 °F 63.5 °F 30.05 in Calm   4 mph 94% 0.01 in 0 W/m2
04:39 65.3 °F 63.5 °F 30.05 in Calm   1 mph 94% 0.01 in 0 W/m2
04:44 65.2 °F 63.4 °F 30.05 in Calm   1 mph 94% 0.01 in 0 W/m2
04:49 65.2 °F 63.4 °F 30.05 in Calm   1 mph 94% 0.01 in 0 W/m2
04:54 65.1 °F 63.3 °F 30.05 in Calm   1 mph 94% 0.01 in 0 W/m2
04:59 65.1 °F 63.3 °F 30.05 in Calm   1 mph 94% 0.02 in 0 W/m2
05:04 65.1 °F 63.3 °F 30.05 in Calm   1 mph 94% 0.02 in 0 W/m2
05:09 65.1 °F 63.3 °F 30.05 in Calm     94% 0.01 in 0 W/m2
05:14 65.1 °F 63.4 °F 30.05 in Calm     94.2% 0.01 in 0 W/m2
05:19 65 °F 63.5 °F 30.05 in NNE 0.1 mph 3 mph 94.9% 0.02 in 0 W/m2
05:24 65 °F 63.6 °F 30.05 in Calm   3 mph 95% 0.02 in 0 W/m2
05:29 65 °F 63.6 °F 30.05 in NNE 0.1 mph 3 mph 95% 0.02 in 0 W/m2
05:34 65 °F 63.5 °F 30.05 in Calm   3 mph 95% 0.02 in 0 W/m2
05:39 65 °F 63.5 °F 30.05 in Calm   1 mph 95% 0.02 in 0 W/m2
05:44 65 °F 63.5 °F 30.05 in NE 0.5 mph 5 mph 95% 0.02 in 0 W/m2
05:49 64.9 °F 63.5 °F 30.05 in ENE 0.1 mph 5 mph 95% 0.02 in 0 W/m2
05:54 64.9 °F 63.4 °F 30.05 in ENE 0.6 mph 6 mph 95% 0.02 in 0 W/m2
05:59 64.9 °F 63.4 °F 30.05 in ENE 0.2 mph 6 mph 95% 0.02 in 0 W/m2
06:04 64.9 °F 63.4 °F 30.06 in ENE 1.1 mph 6 mph 95% 0.02 in 0 W/m2
06:09 64.9 °F 63.4 °F 30.06 in ENE 0.2 mph 6 mph 95% 0.02 in 0 W/m2
06:14 64.8 °F 63.3 °F 30.06 in ENE 0.7 mph 6 mph 95% 0.02 in 5 W/m2
06:19 64.8 °F 63.3 °F 30.06 in Calm   6 mph 95% 0.02 in 5 W/m2
06:24 64.8 °F 63.3 °F 30.06 in Calm   6 mph 95% 0.03 in 7 W/m2
06:29 64.9 °F 63.4 °F 30.06 in Calm   6 mph 95% 0.03 in 9 W/m2
06:34 64.9 °F 63.4 °F 30.06 in ENE 0.1 mph 6 mph 95% 0.03 in 9 W/m2
06:39 64.8 °F 63.4 °F 30.06 in ENE 0.6 mph 4 mph 95% 0.02 in 11 W/m2
06:44 64.8 °F 63.3 °F 30.06 in ENE 0.7 mph 4 mph 95% 0.02 in 14 W/m2
06:49 64.8 °F 63.3 °F 30.06 in ENE 0.5 mph 4 mph 95% 0.02 in 14 W/m2
06:54 64.8 °F 63.4 °F 30.06 in Calm   4 mph 95% 0.02 in 16 W/m2
06:59 64.9 °F 63.4 °F 30.06 in Calm   4 mph 95% 0.02 in 23 W/m2
07:04 64.9 °F 63.6 °F 30.06 in Calm   4 mph 95.4% 0.02 in 19 W/m2
07:09 65 °F 63.9 °F 30.06 in Calm   2 mph 96% 0.03 in 19 W/m2
07:14 65 °F 63.9 °F 30.06 in ENE 0.1 mph 2 mph 96% 0.03 in 19 W/m2
07:19 65 °F 63.8 °F 30.06 in Calm   2 mph 96% 0.03 in 21 W/m2
07:24 65 °F 63.9 °F 30.07 in ENE 0.2 mph 3 mph 96% 0.03 in 26 W/m2
07:29 65.1 °F 63.9 °F 30.07 in ENE 0.3 mph 4 mph 96% 0.03 in 33 W/m2
07:34 65.1 °F 64 °F 30.06 in NNE 1.1 mph 7 mph 96% 0.03 in 39 W/m2
07:39 65.2 °F 64 °F 30.06 in Calm   7 mph 96% 0.01 in 33 W/m2
07:44 65.2 °F 64 °F 30.06 in NW 0.4 mph 7 mph 96% 0.01 in 32 W/m2
07:49 65.2 °F 64 °F 30.06 in North 0.2 mph 7 mph 96% 0.01 in 37 W/m2
07:54 65.2 °F 64 °F 30.06 in NE 0.1 mph 7 mph 96% 0.01 in 37 W/m2
07:59 65.2 °F 64 °F 30.06 in NE 0.1 mph 7 mph 96% 0.01 in 28 W/m2
08:00 65.2 °F 64 °F 30.06 in Calm   7 mph 96% 0.01 in 26 W/m2
08:09 65.2 °F 64 °F 30.06 in Calm   1 mph 96% 0.01 in 30 W/m2
08:14 65.2 °F 64 °F 30.06 in Calm   1 mph 96% 0.01 in 37 W/m2
08:19 65.2 °F 64 °F 30.06 in Calm   1 mph 96% 0.01 in 39 W/m2
08:24 65.2 °F 64.1 °F 30.06 in Calm   1 mph 96% 0.01 in 40 W/m2
08:29 65.3 °F 64.2 °F 30.06 in NNE 0.5 mph 4 mph 96% 0.01 in 37 W/m2
08:34 65.4 °F 64.2 °F 30.06 in Calm   4 mph 96% 0.01 in 40 W/m2
08:39 65.4 °F 64.3 °F 30.05 in NNE 0.3 mph 3 mph 96% 0.00 in 44 W/m2
08:44 65.3 °F 64 °F 30.05 in NNE 0.6 mph 5 mph 95.4% 0.00 in 47 W/m2
08:49 65.3 °F 63.8 °F 30.05 in NNE 0.3 mph 5 mph 95% 0.00 in 47 W/m2
08:54 65.2 °F 63.9 °F 30.05 in NNE 0.2 mph 5 mph 95.5% 0.00 in 46 W/m2
08:59 65.2 °F 64 °F 30.05 in North 0.7 mph 5 mph 95.8% 0.00 in 47 W/m2
09:04 65.3 °F 63.9 °F 30.05 in NNE 0.2 mph 5 mph 95.3% 0.00 in 47 W/m2
09:09 65.4 °F 64.2 °F 30.06 in NNE 0.7 mph 5 mph 96% 0.00 in 44 W/m2
09:14 65.4 °F 64.2 °F 30.05 in Calm   5 mph 95.7% 0.00 in 53 W/m2
09:19 65.6 °F 64.4 °F 30.06 in NW 0.9 mph 7 mph 96% 0.00 in 53 W/m2
09:24 65.6 °F 64.4 °F 30.06 in Calm   7 mph 96% 0.00 in 49 W/m2
09:29 65.7 °F 64.5 °F 30.06 in Calm   7 mph 96% 0.00 in 58 W/m2
09:34 65.8 °F 64.6 °F 30.06 in NW 0.2 mph 7 mph 96% 0.00 in 54 W/m2
09:39 65.8 °F 64.7 °F 30.06 in NW 0.2 mph 4 mph 96% 0.00 in 72 W/m2
09:44 65.9 °F 64.5 °F 30.06 in NW 0.2 mph 4 mph 95.4% 0.00 in 69 W/m2
09:49 65.9 °F 64.4 °F 30.06 in NW 1.3 mph 9 mph 95% 0.00 in 69 W/m2
09:54 65.9 °F 64.4 °F 30.05 in NW 0.4 mph 9 mph 95% 0.00 in 79 W/m2
09:59 66 °F 64.5 °F 30.06 in NNW 1.2 mph 9 mph 95% 0.00 in 83 W/m2
10:04 66 °F 64.5 °F 30.06 in NNW 0.6 mph 9 mph 95% 0.00 in 81 W/m2
10:09 66 °F 64.6 °F 30.06 in North 0.1 mph 5 mph 95% 0.00 in 97 W/m2
10:14 66.2 °F 64.7 °F 30.06 in Calm   5 mph 95% 0.00 in 97 W/m2
10:19 66.3 °F 64.8 °F 30.06 in North 0.8 mph 5 mph 95% 0.00 in 83 W/m2
10:24 66.3 °F 64.8 °F 30.06 in NNE 0.1 mph 5 mph 95% 0.00 in 83 W/m2
10:29 66.4 °F 64.9 °F 30.06 in Calm   5 mph 95% 0.00 in 69 W/m2
10:34 66.4 °F 64.9 °F 30.06 in Calm   5 mph 95% 0.00 in 95 W/m2
10:39 66.5 °F 65 °F 30.06 in NNE 0.9 mph 5 mph 95% 0.00 in 97 W/m2
10:44 66.7 °F 65.2 °F 30.07 in NNE 0.5 mph 5 mph 95% 0.00 in 97 W/m2
10:49 66.8 °F 65.4 °F 30.07 in NNE 0.4 mph 5 mph 95% 0.00 in 111 W/m2
10:54 67 °F 65.5 °F 30.07 in NNE 0.5 mph 5 mph 95% 0.00 in 111 W/m2
10:59 67 °F 65.5 °F 30.07 in Calm   5 mph 95% 0.00 in 97 W/m2
11:04 67 °F 65.5 °F 30.07 in NNE 0.7 mph 5 mph 94.8% 0.00 in 84 W/m2
11:09 67.1 °F 65.3 °F 30.07 in Calm   5 mph 94% 0.00 in 79 W/m2
11:14 67.2 °F 65.4 °F 30.07 in NNE 0.2 mph 5 mph 94% 0.00 in 104 W/m2
11:19 67.1 °F 65.4 °F 30.07 in NNE 0.2 mph 5 mph 94% 0.00 in 104 W/m2
11:24 67.2 °F 65.4 °F 30.07 in NNW 0.8 mph 5 mph 94% 0.00 in 107 W/m2
11:29 67.2 °F 65.4 °F 30.07 in North 0.2 mph 5 mph 94% 0.00 in 107 W/m2
11:34 67.2 °F 65.4 °F 30.07 in North 0.8 mph 6 mph 94% 0.00 in 121 W/m2
11:39 67.2 °F 65.4 °F 30.07 in NNW 1.3 mph 7 mph 94% 0.00 in 111 W/m2
11:44 67.3 °F 65.5 °F 30.07 in NNW 0.9 mph 7 mph 94% 0.00 in 139 W/m2
11:49 67.4 °F 65.7 °F 30.07 in NNW 0.7 mph 7 mph 94% 0.00 in 114 W/m2
11:54 67.6 °F 65.8 °F 30.07 in WNW 1.2 mph 9 mph 94% 0.00 in 114 W/m2
11:59 67.7 °F 65.9 °F 30.07 in NW 0.5 mph 9 mph 94% 0.00 in 114 W/m2
12:00 67.7 °F 65.9 °F 30.07 in Calm   9 mph 94% 0.00 in 114 W/m2
12:09 67.8 °F 66 °F 30.07 in NNW 1.1 mph 4 mph 94% 0.00 in 192 W/m2
12:14 67.9 °F 66.1 °F 30.07 in NNW 2.2 mph 7 mph 93.8% 0.00 in 155 W/m2
12:19 68 °F 66 °F 30.06 in NW 0.9 mph 7 mph 93.5% 0.00 in 221 W/m2
12:24 68.1 °F 66.2 °F 30.06 in NW 0.5 mph 7 mph 93.5% 0.00 in 304 W/m2
12:29 68.4 °F 66.4 °F 30.06 in NNW 2.1 mph 7 mph 93.3% 0.00 in 308 W/m2
12:34 68.6 °F 66.5 °F 30.06 in NNW 2.8 mph 11 mph 93% 0.00 in 258 W/m2
12:39 68.7 °F 66.4 °F 30.06 in NNW 0.4 mph 11 mph 92.2% 0.00 in 258 W/m2
12:44 69 °F 66.6 °F 30.06 in North 0.2 mph 11 mph 92% 0.00 in 262 W/m2
12:49 69.2 °F 66.6 °F 30.06 in NE 1.2 mph 11 mph 91.3% 0.00 in 306 W/m2
12:54 69.5 °F 66.6 °F 30.06 in North 0.2 mph 11 mph 90.5% 0.00 in 139 W/m2
12:59 69.5 °F 66.2 °F 30.06 in NNE 0.1 mph 11 mph 89.3% 0.00 in 113 W/m2
13:04 69.4 °F 65.8 °F 30.06 in NNW 1.6 mph 11 mph 88.3% 0.00 in 149 W/m2
13:09 69.5 °F 65.9 °F 30.05 in NNW 0.2 mph 6 mph 88.4% 0.00 in 153 W/m2
13:14 69.6 °F 66 °F 30.05 in North 0.2 mph 6 mph 88.4% 0.00 in 185 W/m2
13:19 69.6 °F 65.7 °F 30.05 in NE 1.1 mph 6 mph 87.4% 0.00 in 202 W/m2
13:24 69.7 °F 65.8 °F 30.05 in North 1.1 mph 9 mph 87.4% 0.00 in 197 W/m2
13:29 69.9 °F 65.9 °F 30.05 in NNW 3.4 mph 11 mph 87% 0.00 in 218 W/m2
13:34 70.1 °F 65.9 °F 30.05 in North 1 mph 13 mph 86.5% 0.00 in 248 W/m2
13:39 70.2 °F 65.9 °F 30.05 in NNE 0.5 mph 13 mph 86.2% 0.00 in 429 W/m2
13:44 70.6 °F 66.4 °F 30.05 in NNW 1.3 mph 13 mph 86.5% 0.00 in 429 W/m2
13:49 70.8 °F 66 °F 30.05 in NE 1.9 mph 13 mph 84.8% 0.00 in 413 W/m2
13:54 70.9 °F 65.9 °F 30.05 in ENE 0.8 mph 13 mph 84% 0.00 in 378 W/m2
13:59 71.1 °F 66.1 °F 30.04 in ENE 2 mph 13 mph 84.3% 0.00 in 336 W/m2
14:04 71.2 °F 66 °F 30.04 in NE 0.4 mph 13 mph 83.5% 0.00 in 174 W/m2
14:09 71.3 °F 66 °F 30.04 in East 0.6 mph 4 mph 83.5% 0.00 in 540 W/m2
14:14 71.4 °F 66.1 °F 30.05 in NE 0.9 mph 5 mph 83.3% 0.00 in 540 W/m2
14:19 71.6 °F 66.5 °F 30.05 in NNW 3 mph 9 mph 84% 0.00 in 267 W/m2
14:24 71.7 °F 66.6 °F 30.04 in NW 0.8 mph 9 mph 84% 0.00 in 411 W/m2
14:29 72 °F 66.9 °F 30.04 in NNW 0.4 mph 9 mph 84.1% 0.00 in 348 W/m2
14:34 72.2 °F 66.5 °F 30.04 in NE 0.5 mph 9 mph 82.5% 0.00 in 178 W/m2
14:39 72.2 °F 66.7 °F 30.05 in NNE 0.2 mph 3 mph 82.8% 0.00 in 209 W/m2
14:44 72.4 °F 67.1 °F 30.05 in WNW 1.6 mph 7 mph 83.5% 0.00 in 367 W/m2
14:49 72.6 °F 67.2 °F 30.04 in NNW 1.1 mph 7 mph 83.2% 0.00 in 559 W/m2
14:54 72.9 °F 67.2 °F 30.04 in NNW 1.4 mph 7 mph 82.2% 0.00 in 232 W/m2
14:59 73 °F 66.9 °F 30.04 in NE 1 mph 7 mph 81.2% 0.00 in 213 W/m2
15:04 73.1 °F 67.3 °F 30.04 in NNW 0.4 mph 7 mph 82% 0.00 in 443 W/m2
15:09 73.3 °F 67.5 °F 30.03 in North 0.8 mph 7 mph 82% 0.00 in 457 W/m2
15:14 73.5 °F 67.3 °F 30.03 in NE 1.7 mph 10 mph 80.8% 0.00 in 446 W/m2
15:19 73.5 °F 66.7 °F 30.03 in ENE 0.5 mph 10 mph 79.3% 0.00 in 213 W/m2
15:24 73.5 °F 67.1 °F 30.03 in Calm   10 mph 80.5% 0.00 in 257 W/m2
15:29 73.5 °F 67.2 °F 30.03 in NNW 1.9 mph 10 mph 80.6% 0.00 in 262 W/m2
15:34 73.5 °F 67.1 °F 30.03 in ENE 1.1 mph 10 mph 80.3% 0.00 in 181 W/m2
15:39 73.4 °F 66.9 °F 30.03 in ENE 0.4 mph 6 mph 80% 0.00 in 167 W/m2
15:44 73.3 °F 67.1 °F 30.03 in ENE 0.3 mph 6 mph 80.9% 0.00 in 202 W/m2
15:49 73.4 °F 67.3 °F 30.03 in NNE 0.1 mph 6 mph 81.2% 0.00 in 253 W/m2
15:54 73.6 °F 67.4 °F 30.03 in NW 1.1 mph 6 mph 81% 0.00 in 318 W/m2
15:59 73.8 °F 67.6 °F 30.03 in NE 1.1 mph 7 mph 80.9% 0.00 in 352 W/m2
16:09 74.3 °F 68.1 °F 30.03 in Calm     80.9% 0.00 in 362 W/m2
16:14 74.5 °F 67.7 °F 30.03 in Calm     79.2% 0.00 in 290 W/m2
16:19 74.6 °F 67.9 °F 30.03 in NE 0.4 mph 4 mph 79.5% 0.00 in 253 W/m2
16:24 74.6 °F 67.3 °F 30.02 in East 0.6 mph 5 mph 78.1% 0.00 in 229 W/m2
16:29 74.6 °F 67.9 °F 30.02 in NE 0.1 mph 5 mph 79.6% 0.00 in 199 W/m2
16:34 74.7 °F 67.7 °F 30.02 in NW 0.7 mph 5 mph 79% 0.00 in 174 W/m2
16:39 74.7 °F 67.4 °F 30.02 in NNE 0.2 mph 5 mph 78% 0.00 in 199 W/m2
16:44 74.8 °F 67.7 °F 30.03 in North 0.4 mph 5 mph 78.6% 0.00 in 216 W/m2
16:49 74.9 °F 67.7 °F 30.03 in NNW 0.4 mph 5 mph 78.1% 0.00 in 216 W/m2
16:54 75 °F 67.5 °F 30.03 in NNW 0.1 mph 5 mph 77.4% 0.00 in 155 W/m2
16:59 75 °F 67.6 °F 30.03 in NNW 0.1 mph 5 mph 77.8% 0.00 in 156 W/m2
17:04 75 °F 67.7 °F 30.03 in NNW 0.1 mph 5 mph 77.8% 0.00 in 160 W/m2
17:09 75.1 °F 67.6 °F 30.03 in North 0.2 mph 2 mph 77.6% 0.00 in 151 W/m2
17:14 75.1 °F 67.6 °F 30.03 in NNE 0.3 mph 2 mph 77.5% 0.00 in 130 W/m2
17:19 74.9 °F 67.3 °F 30.03 in NE 0.6 mph 3 mph 77.1% 0.00 in 111 W/m2
17:24 74.8 °F 67.5 °F 30.03 in NE 0.2 mph 3 mph 77.9% 0.00 in 109 W/m2
17:29 74.8 °F 67.6 °F 30.03 in NE 0.1 mph 3 mph 78.3% 0.00 in 102 W/m2
17:34 74.7 °F 67.4 °F 30.03 in NE 0.1 mph 3 mph 78% 0.00 in 90 W/m2
17:39 74.6 °F 67.3 °F 30.03 in Calm   2 mph 78% 0.00 in 79 W/m2
17:44 74.5 °F 67.2 °F 30.03 in NE 0.2 mph 2 mph 78% 0.00 in 77 W/m2
17:49 74.4 °F 67.1 °F 30.03 in NE 0.4 mph 2 mph 78% 0.00 in 81 W/m2
17:54 74.3 °F 67 °F 30.03 in NE 0.1 mph 2 mph 78% 0.00 in 113 W/m2
17:59 74.2 °F 67 °F 30.03 in NE 0.1 mph 2 mph 78% 0.00 in 114 W/m2
18:04 74.2 °F 67 °F 30.03 in Calm   2 mph 78.2% 0.00 in 102 W/m2
18:09 74.3 °F 67.1 °F 30.03 in Calm   1 mph 78.3% 0.00 in 84 W/m2
18:14 74.3 °F 67.2 °F 30.03 in Calm   1 mph 78.6% 0.00 in 76 W/m2
18:19 74.3 °F 67.3 °F 30.03 in NE 0.1 mph 1 mph 78.9% 0.00 in 65 W/m2
18:24 74.3 °F 67.1 °F 30.03 in NE 0.6 mph 3 mph 78.3% 0.00 in 60 W/m2
18:29 74.3 °F 67 °F 30.03 in NE 0.4 mph 3 mph 78% 0.00 in 53 W/m2
18:34 74.3 °F 67.1 °F 30.03 in NE 0.3 mph 3 mph 78.2% 0.00 in 47 W/m2
18:39 74.3 °F 67.1 °F 30.03 in NE 0.2 mph 2 mph 78.4% 0.00 in 58 W/m2
18:44 74.3 °F 67.3 °F 30.03 in Calm   2 mph 78.8% 0.00 in 72 W/m2
18:49 74.4 °F 67.1 °F 30.03 in Calm   2 mph 78% 0.00 in 70 W/m2
18:54 74.5 °F 67.2 °F 30.03 in Calm   2 mph 78% 0.00 in 39 W/m2
18:59 74.5 °F 67.2 °F 30.03 in Calm   2 mph 78% 0.00 in 23 W/m2
19:04 74.5 °F 67.1 °F 30.03 in Calm   2 mph 77.8% 0.00 in 26 W/m2
19:09 74.3 °F 67 °F 30.03 in Calm   1 mph 77.9% 0.00 in 28 W/m2
19:14 74.3 °F 67 °F 30.03 in Calm   1 mph 78% 0.00 in 28 W/m2
19:19 74.3 °F 67 °F 30.03 in Calm   1 mph 78% 0.00 in 23 W/m2
19:24 74.2 °F 66.9 °F 30.03 in Calm   1 mph 78% 0.00 in 23 W/m2
19:29 74.2 °F 66.9 °F 30.03 in Calm   1 mph 78% 0.00 in 19 W/m2
19:34 74.1 °F 66.8 °F 30.03 in Calm   1 mph 78% 0.00 in 14 W/m2
19:39 74 °F 66.7 °F 30.03 in Calm     78% 0.00 in 11 W/m2
19:44 74 °F 66.7 °F 30.04 in Calm     78% 0.00 in 7 W/m2
19:49 73.8 °F 66.6 °F 30.04 in Calm     78% 0.00 in 5 W/m2
19:54 73.7 °F 66.4 °F 30.04 in Calm     78% 0.00 in 0 W/m2
19:59 73.6 °F 66.5 °F 30.04 in Calm     78.4% 0.00 in 0 W/m2
20:09 73.3 °F 66.4 °F 30.04 in Calm     79% 0.00 in 0 W/m2
20:14 73 °F 66.5 °F 30.04 in Calm     79.9% 0.00 in 0 W/m2
20:19 72.8 °F 66.3 °F 30.04 in Calm     80% 0.00 in 0 W/m2
20:24 72.6 °F 66.4 °F 30.04 in Calm     80.8% 0.00 in 0 W/m2
20:29 72.4 °F 66.4 °F 30.04 in Calm     81.6% 0.00 in 0 W/m2
20:34 72.1 °F 66.5 °F 30.05 in Calm     82.4% 0.00 in 0 W/m2
20:39 71.9 °F 66.4 °F 30.05 in Calm     82.8% 0.00 in 0 W/m2
20:44 71.7 °F 66.3 °F 30.05 in Calm     83.2% 0.00 in 0 W/m2
20:49 71.5 °F 66.4 °F 30.05 in Calm     84% 0.00 in 0 W/m2
20:54 71.2 °F 66.2 °F 30.05 in Calm     84.3% 0.00 in 0 W/m2
20:59 70.9 °F 66.2 °F 30.05 in Calm     85% 0.00 in 0 W/m2
21:04 70.7 °F 66.2 °F 30.06 in Calm     85.6% 0.00 in 0 W/m2
21:09 70.6 °F 66.2 °F 30.06 in Calm     86% 0.00 in 0 W/m2
21:14 70.4 °F 66 °F 30.06 in Calm     86% 0.00 in 0 W/m2
21:19 70.3 °F 66.1 °F 30.06 in Calm     86.6% 0.00 in 0 W/m2
21:24 70.1 °F 66.1 °F 30.06 in Calm     87% 0.00 in 0 W/m2
21:29 69.9 °F 65.9 °F 30.06 in Calm     87% 0.00 in 0 W/m2
21:34 69.8 °F 66.1 °F 30.06 in Calm     88% 0.00 in 0 W/m2
21:39 69.7 °F 66 °F 30.06 in Calm     88% 0.00 in 0 W/m2
21:44 69.5 °F 65.8 °F 30.07 in Calm     88% 0.00 in 0 W/m2
21:49 69.4 °F 65.7 °F 30.07 in Calm     88.2% 0.00 in 0 W/m2
21:54 69.2 °F 65.8 °F 30.07 in Calm     89% 0.00 in 0 W/m2
21:59 69 °F 65.7 °F 30.08 in Calm     89% 0.00 in 0 W/m2
22:04 68.9 °F 65.5 °F 30.07 in Calm     89% 0.00 in 0 W/m2
22:09 68.8 °F 65.4 °F 30.08 in Calm     89% 0.00 in 0 W/m2
22:14 68.6 °F 65.5 °F 30.08 in Calm     89.8% 0.00 in 0 W/m2
22:19 68.5 °F 65.5 °F 30.08 in Calm     90% 0.00 in 0 W/m2
22:24 68.5 °F 65.4 °F 30.08 in Calm     90% 0.00 in 0 W/m2
22:29 68.4 °F 65.3 °F 30.08 in Calm     90% 0.00 in 0 W/m2
22:34 68.3 °F 65.5 °F 30.08 in Calm     90.8% 0.00 in 0 W/m2
22:39 68.2 °F 65.4 °F 30.08 in Calm     90.7% 0.00 in 0 W/m2
22:44 68.1 °F 65.4 °F 30.08 in Calm     91% 0.00 in 0 W/m2
22:49 68.1 °F 65.4 °F 30.08 in Calm     91% 0.00 in 0 W/m2
22:54 68.1 °F 65.3 °F 30.08 in Calm     91% 0.00 in 0 W/m2
22:59 68 °F 65.2 °F 30.08 in Calm     91% 0.00 in 0 W/m2
23:04 67.9 °F 65.1 °F 30.08 in Calm     91% 0.00 in 0 W/m2
23:09 67.7 °F 65 °F 30.08 in Calm     91% 0.00 in 0 W/m2
23:14 67.6 °F 65 °F 30.08 in Calm     91.3% 0.00 in 0 W/m2
23:19 67.5 °F 64.8 °F 30.08 in Calm     91% 0.00 in 0 W/m2
23:24 67.4 °F 65 °F 30.08 in Calm     92% 0.00 in 0 W/m2
23:29 67.4 °F 65 °F 30.08 in Calm     92% 0.00 in 0 W/m2
23:34 67.2 °F 64.8 °F 30.08 in Calm     92% 0.00 in 0 W/m2
23:39 67.1 °F 64.7 °F 30.08 in Calm     92% 0.00 in 0 W/m2
23:44 67 °F 64.6 °F 30.08 in Calm     92% 0.00 in 0 W/m2
23:49 66.8 °F 64.4 °F 30.08 in Calm     92% 0.00 in 0 W/m2
23:54 66.7 °F 64.3 °F 30.08 in Calm     92% 0.00 in 0 W/m2
23:59 66.6 °F 64.2 °F 30.08 in Calm     92% 0.00 in 0 W/m2
Hartford County Weather
Compliments of Weather Underground - 2 mb